Time,TemperatureF,DewpointF,PressureIn,WindDirection,WindDirectionDegrees,WindSpeedMPH,WindSpeedGustMPH,Humidity,HourlyPrecipIn,Conditions,Clouds,dailyrainin,SoftwareType,DateUTC
2013-06-16 00:01:00,59.0,48.0,-100.00,SE,131,-999.0,-999.0,68,-99.99,,,-99.99,,2013-06-16 06:01:00,
2013-06-16 00:11:00,57.0,46.0,-100.00,SE,131,-999.0,-999.0,68,-99.99,,,-99.99,,2013-06-16 06:11:00,
2013-06-16 00:22:00,57.0,46.0,-100.00,SE,131,-999.0,-999.0,68,-99.99,,,-99.99,,2013-06-16 06:22:00,
2013-06-16 00:33:00,57.0,46.0,-100.00,SE,131,-999.0,-999.0,67,-99.99,,,-99.99,,2013-06-16 06:33:00,
2013-06-16 00:43:00,56.0,47.0,-100.00,SE,131,-999.0,-999.0,73,-99.99,,,-99.99,,2013-06-16 06:43:00,
2013-06-16 00:52:00,56.0,47.0,-100.00,SE,131,-999.0,-999.0,73,-99.99,,,-99.99,,2013-06-16 06:52:00,
2013-06-16 01:01:00,55.0,47.0,-100.00,SE,131,-999.0,-999.0,76,-99.99,,,-99.99,,2013-06-16 07:01:00,
2013-06-16 01:11:00,55.0,46.0,-100.00,SE,131,-999.0,-999.0,74,-99.99,,,-99.99,,2013-06-16 07:11:00,
2013-06-16 01:22:00,55.0,46.0,-100.00,SE,131,-999.0,-999.0,74,-99.99,,,-99.99,,2013-06-16 07:22:00,
2013-06-16 01:32:00,55.0,46.0,-100.00,SE,131,-999.0,-999.0,74,-99.99,,,-99.99,,2013-06-16 07:32:00,
2013-06-16 01:43:00,55.0,46.0,-100.00,SE,131,-999.0,-999.0,73,-99.99,,,-99.99,,2013-06-16 07:43:00,
2013-06-16 01:53:00,55.0,46.0,-100.00,SE,131,-999.0,-999.0,73,-99.99,,,-99.99,,2013-06-16 07:53:00,
2013-06-16 02:02:00,55.0,46.0,-100.00,SE,131,-999.0,-999.0,74,-99.99,,,-99.99,,2013-06-16 08:02:00,
2013-06-16 02:11:00,54.0,46.0,-100.00,SE,131,-999.0,-999.0,76,-99.99,,,-99.99,,2013-06-16 08:11:00,
2013-06-16 02:22:00,54.0,46.0,-100.00,SE,131,-999.0,-999.0,76,-99.99,,,-99.99,,2013-06-16 08:22:00,
2013-06-16 02:33:00,54.0,46.0,-100.00,SE,131,-999.0,-999.0,75,-99.99,,,-99.99,,2013-06-16 08:33:00,
2013-06-16 02:43:00,54.0,46.0,-100.00,SE,131,-999.0,-999.0,74,-99.99,,,-99.99,,2013-06-16 08:43:00,
2013-06-16 02:54:00,54.0,46.0,-100.00,SE,131,-999.0,-999.0,74,-99.99,,,-99.99,,2013-06-16 08:54:00,
2013-06-16 03:01:00,55.0,46.0,-100.00,SE,131,-999.0,-999.0,72,-99.99,,,-99.99,,2013-06-16 09:01:00,
2013-06-16 03:11:00,54.0,47.0,-100.00,SE,131,-999.0,-999.0,79,-99.99,,,-99.99,,2013-06-16 09:11:00,
2013-06-16 03:22:00,54.0,47.0,-100.00,SE,131,-999.0,-999.0,79,-99.99,,,-99.99,,2013-06-16 09:22:00,
2013-06-16 03:33:00,53.0,45.0,-100.00,SE,131,-999.0,-999.0,76,-99.99,,,-99.99,,2013-06-16 09:33:00,
2013-06-16 03:42:00,54.0,44.0,-100.00,SE,131,-999.0,-999.0,71,-99.99,,,-99.99,,2013-06-16 09:42:00,
2013-06-16 03:52:00,54.0,44.0,-100.00,SE,131,-999.0,-999.0,71,-99.99,,,-99.99,,2013-06-16 09:52:00,
2013-06-16 04:01:00,55.0,49.0,-100.00,SE,131,-999.0,-999.0,82,-99.99,,,-99.99,,2013-06-16 10:01:00,
2013-06-16 04:12:00,54.0,44.0,-100.00,SE,131,-999.0,-999.0,69,-99.99,,,-99.99,,2013-06-16 10:12:00,
2013-06-16 04:22:00,54.0,44.0,-100.00,SE,131,-999.0,-999.0,69,-99.99,,,-99.99,,2013-06-16 10:22:00,
2013-06-16 04:33:00,53.0,43.0,-100.00,SE,131,-999.0,-999.0,69,-99.99,,,-99.99,,2013-06-16 10:33:00,
2013-06-16 04:43:00,53.0,43.0,-100.00,SE,131,-999.0,-999.0,69,-99.99,,,-99.99,,2013-06-16 10:43:00,
2013-06-16 04:53:00,53.0,43.0,-100.00,SE,131,-999.0,-999.0,69,-99.99,,,-99.99,,2013-06-16 10:53:00,
2013-06-16 05:02:00,52.0,45.0,-100.00,SE,131,-999.0,-999.0,77,-99.99,,,-99.99,,2013-06-16 11:02:00,
2013-06-16 05:11:00,52.0,43.0,-100.00,SE,131,-999.0,-999.0,73,-99.99,,,-99.99,,2013-06-16 11:11:00,
2013-06-16 05:22:00,52.0,43.0,-100.00,SE,131,-999.0,-999.0,73,-99.99,,,-99.99,,2013-06-16 11:22:00,
2013-06-16 05:33:00,52.0,42.0,-100.00,SE,131,-999.0,-999.0,71,-99.99,,,-99.99,,2013-06-16 11:33:00,
2013-06-16 05:43:00,52.0,41.0,-100.00,SE,131,-999.0,-999.0,67,-99.99,,,-99.99,,2013-06-16 11:43:00,
2013-06-16 05:52:00,52.0,41.0,-100.00,SE,131,-999.0,-999.0,67,-99.99,,,-99.99,,2013-06-16 11:52:00,
2013-06-16 06:02:00,53.0,40.0,-100.00,SE,131,-999.0,-999.0,62,-99.99,,,-99.99,,2013-06-16 12:02:00,
2013-06-16 06:11:00,53.0,40.0,-100.00,SE,131,-999.0,-999.0,62,-99.99,,,-99.99,,2013-06-16 12:11:00,
2013-06-16 06:22:00,53.0,40.0,-100.00,SE,131,-999.0,-999.0,62,-99.99,,,-99.99,,2013-06-16 12:22:00,
2013-06-16 06:32:00,52.0,42.0,-100.00,SE,131,-999.0,-999.0,69,-99.99,,,-99.99,,2013-06-16 12:32:00,
2013-06-16 06:42:00,53.0,42.0,-100.00,SE,131,0.0,-999.0,67,-99.99,,,-99.99,,2013-06-16 12:42:00,
2013-06-16 06:53:00,53.0,42.0,-100.00,SE,131,0.0,-999.0,67,-99.99,,,-99.99,,2013-06-16 12:53:00,
2013-06-16 07:01:00,55.0,43.0,-100.00,SE,131,0.0,-999.0,64,-99.99,,,-99.99,,2013-06-16 13:01:00,
2013-06-16 07:11:00,58.0,44.0,-100.00,SE,131,0.0,-999.0,60,-99.99,,,-99.99,,2013-06-16 13:11:00,
2013-06-16 07:22:00,58.0,44.0,-100.00,SE,131,0.0,-999.0,60,-99.99,,,-99.99,,2013-06-16 13:22:00,
2013-06-16 07:34:00,62.0,43.0,-100.00,SE,131,0.0,-999.0,50,-99.99,,,-99.99,,2013-06-16 13:34:00,
2013-06-16 07:42:00,66.0,44.0,-100.00,SE,131,0.0,-999.0,45,-99.99,,,-99.99,,2013-06-16 13:42:00,
2013-06-16 07:53:00,66.0,44.0,-100.00,SE,131,0.0,-999.0,45,-99.99,,,-99.99,,2013-06-16 13:53:00,
2013-06-16 08:02:00,68.0,44.0,-100.00,SE,131,0.0,-999.0,42,-99.99,,,-99.99,,2013-06-16 14:02:00,
2013-06-16 08:12:00,70.0,44.0,-100.00,SE,131,0.0,-999.0,39,-99.99,,,-99.99,,2013-06-16 14:12:00,
2013-06-16 08:22:00,70.0,44.0,-100.00,SE,131,0.0,-999.0,39,-99.99,,,-99.99,,2013-06-16 14:22:00,
2013-06-16 08:34:00,69.0,44.0,-100.00,SE,131,0.0,-999.0,41,-99.99,,,-99.99,,2013-06-16 14:34:00,
2013-06-16 08:43:00,67.0,45.0,-100.00,SE,131,-999.0,-999.0,46,-99.99,,,-99.99,,2013-06-16 14:43:00,
2013-06-16 08:52:00,67.0,45.0,-100.00,SE,131,-999.0,-999.0,46,-99.99,,,-99.99,,2013-06-16 14:52:00,
2013-06-16 09:02:00,69.0,49.0,-100.00,SE,131,-999.0,-999.0,50,-99.99,,,-99.99,,2013-06-16 15:02:00,
2013-06-16 09:12:00,73.0,48.0,-100.00,SE,131,-999.0,2.0,41,-99.99,,,-99.99,,2013-06-16 15:12:00,
2013-06-16 09:23:00,73.0,48.0,-100.00,SE,131,-999.0,2.0,41,-99.99,,,-99.99,,2013-06-16 15:23:00,
2013-06-16 09:33:00,73.0,48.0,-100.00,SE,131,-999.0,6.0,42,-99.99,,,-99.99,,2013-06-16 15:33:00,
2013-06-16 09:43:00,73.0,48.0,-100.00,SE,131,-999.0,6.0,42,-99.99,,,-99.99,,2013-06-16 15:43:00,
2013-06-16 09:52:00,73.0,48.0,-100.00,SE,131,-999.0,8.0,42,-99.99,,,-99.99,,2013-06-16 15:52:00,
2013-06-16 10:02:00,73.0,47.0,-100.00,SE,131,-999.0,8.0,40,-99.99,,,-99.99,,2013-06-16 16:02:00,
2013-06-16 10:12:00,74.0,44.0,-100.00,SE,131,-999.0,6.0,35,-99.99,,,-99.99,,2013-06-16 16:12:00,
2013-06-16 10:22:00,74.0,44.0,-100.00,SSE,154,0.0,9.0,35,-99.99,,,-99.99,,2013-06-16 16:22:00,
2013-06-16 10:33:00,76.0,46.0,-100.00,SSE,154,0.0,9.0,35,-99.99,,,-99.99,,2013-06-16 16:33:00,
2013-06-16 10:43:00,78.0,48.0,-100.00,SSE,154,0.0,8.0,35,-99.99,,,-99.99,,2013-06-16 16:43:00,
2013-06-16 10:53:00,78.0,48.0,-100.00,SSE,154,0.0,8.0,35,-99.99,,,-99.99,,2013-06-16 16:53:00,
2013-06-16 11:02:00,74.0,47.0,-100.00,SSE,154,0.0,8.0,38,-99.99,,,-99.99,,2013-06-16 17:02:00,
2013-06-16 11:12:00,75.0,32.0,-100.00,SSE,154,0.0,5.0,20,-99.99,,,-99.99,,2013-06-16 17:12:00,
2013-06-16 11:22:00,75.0,32.0,-100.00,SSE,154,0.0,2.0,20,-99.99,,,-99.99,,2013-06-16 17:22:00,
2013-06-16 11:34:00,74.0,46.0,-100.00,SSE,154,0.0,2.0,38,-99.99,,,-99.99,,2013-06-16 17:34:00,
2013-06-16 11:43:00,74.0,45.0,-100.00,SSE,154,0.0,2.0,36,-99.99,,,-99.99,,2013-06-16 17:43:00,
2013-06-16 11:53:00,74.0,45.0,-100.00,SSE,154,0.0,4.0,36,-99.99,,,-99.99,,2013-06-16 17:53:00,
2013-06-16 12:02:00,74.0,54.0,-100.00,SSE,154,0.0,4.0,50,-99.99,,,-99.99,,2013-06-16 18:02:00,
2013-06-16 12:12:00,71.0,51.0,-100.00,SSE,154,0.0,6.0,50,-99.99,,,-99.99,,2013-06-16 18:12:00,
2013-06-16 12:22:00,71.0,51.0,-100.00,SSE,154,-999.0,7.0,50,-99.99,,,-99.99,,2013-06-16 18:22:00,
2013-06-16 12:33:00,72.0,49.0,-100.00,SSE,154,-999.0,7.0,44,-99.99,,,-99.99,,2013-06-16 18:33:00,
2013-06-16 12:43:00,73.0,32.0,-100.00,SSE,154,-999.0,4.0,22,-99.99,,,-99.99,,2013-06-16 18:43:00,
2013-06-16 12:52:00,73.0,32.0,-100.00,SSE,154,-999.0,6.0,22,-99.99,,,-99.99,,2013-06-16 18:52:00,
2013-06-16 13:01:00,73.0,32.0,-100.00,NW,308,0.0,6.0,21,-99.99,,,-99.99,,2013-06-16 19:01:00,
2013-06-16 13:11:00,72.0,32.0,-100.00,NW,308,0.0,8.0,22,-99.99,,,-99.99,,2013-06-16 19:11:00,
2013-06-16 13:22:00,72.0,32.0,-100.00,NW,308,0.0,8.0,22,-99.99,,,-99.99,,2013-06-16 19:22:00,
2013-06-16 13:34:00,68.0,36.0,-100.00,NW,308,0.0,8.0,30,-99.99,,,-99.99,,2013-06-16 19:34:00,
2013-06-16 13:43:00,67.0,37.0,-100.00,NW,308,0.0,10.0,33,-99.99,,,-99.99,,2013-06-16 19:43:00,
2013-06-16 13:53:00,67.0,37.0,-100.00,NW,308,0.0,8.0,33,-99.99,,,-99.99,,2013-06-16 19:53:00,
2013-06-16 14:02:00,67.0,41.0,-100.00,WNW,296,1.0,8.0,39,-99.99,,,-99.99,,2013-06-16 20:02:00,
2013-06-16 14:11:00,67.0,46.0,-100.00,WNW,296,1.0,11.0,47,-99.99,,,-99.99,,2013-06-16 20:11:00,
2013-06-16 14:22:00,67.0,46.0,-100.00,WNW,296,1.0,9.0,47,-99.99,,,-99.99,,2013-06-16 20:22:00,
2013-06-16 14:33:00,61.0,42.0,-100.00,NW,325,2.0,9.0,49,-99.99,,,-99.99,,2013-06-16 20:33:00,
2013-06-16 14:42:00,60.0,44.0,-100.00,NW,325,2.0,11.0,56,-99.99,,,-99.99,,2013-06-16 20:42:00,
2013-06-16 14:53:00,60.0,44.0,-100.00,NW,325,2.0,11.0,56,-99.99,,,-99.99,,2013-06-16 20:53:00,
2013-06-16 15:01:00,58.0,48.0,-100.00,NW,325,2.0,11.0,70,-99.99,,,-99.99,,2013-06-16 21:01:00,
2013-06-16 15:11:00,66.0,49.0,-100.00,NW,325,2.0,3.0,56,-99.99,,,-99.99,,2013-06-16 21:11:00,
2013-06-16 15:22:00,66.0,49.0,-100.00,NW,325,2.0,3.0,56,-99.99,,,-99.99,,2013-06-16 21:22:00,
2013-06-16 15:32:00,71.0,46.0,-100.00,SSW,194,1.0,3.0,42,-99.99,,,-99.99,,2013-06-16 21:32:00,
2013-06-16 15:42:00,69.0,44.0,-100.00,SSW,194,1.0,5.0,40,-99.99,,,-99.99,,2013-06-16 21:42:00,
2013-06-16 15:53:00,69.0,44.0,-100.00,SSW,194,1.0,6.0,40,-99.99,,,-99.99,,2013-06-16 21:53:00,
2013-06-16 16:01:00,74.0,43.0,-100.00,SSW,194,1.0,6.0,34,-99.99,,,-99.99,,2013-06-16 22:01:00,
2013-06-16 16:12:00,74.0,42.0,-100.00,SSW,194,1.0,6.0,31,-99.99,,,-99.99,,2013-06-16 22:12:00,
2013-06-16 16:22:00,74.0,42.0,-100.00,SSW,194,1.0,6.0,31,-99.99,,,-99.99,,2013-06-16 22:22:00,
2013-06-16 16:32:00,73.0,41.0,-100.00,SSW,194,1.0,6.0,31,-99.99,,,-99.99,,2013-06-16 22:32:00,
2013-06-16 16:42:00,75.0,42.0,-100.00,SSW,194,1.0,6.0,30,-99.99,,,-99.99,,2013-06-16 22:42:00,
2013-06-16 16:52:00,75.0,42.0,-100.00,SSW,194,1.0,4.0,30,-99.99,,,-99.99,,2013-06-16 22:52:00,
2013-06-16 17:01:00,75.0,41.0,-100.00,SSW,194,1.0,4.0,29,-99.99,,,-99.99,,2013-06-16 23:01:00,
2013-06-16 17:11:00,75.0,41.0,-100.00,SSW,194,1.0,4.0,29,-99.99,,,-99.99,,2013-06-16 23:11:00,
2013-06-16 17:22:00,75.0,41.0,-100.00,SSW,194,1.0,4.0,29,-99.99,,,-99.99,,2013-06-16 23:22:00,
2013-06-16 17:32:00,76.0,44.0,-100.00,SSW,194,-999.0,4.0,32,-99.99,,,-99.99,,2013-06-16 23:32:00,
2013-06-16 17:42:00,75.0,41.0,-100.00,SSW,194,-999.0,4.0,29,-99.99,,,-99.99,,2013-06-16 23:42:00,
2013-06-16 17:51:00,75.0,41.0,-100.00,SSW,194,-999.0,-999.0,29,-99.99,,,-99.99,,2013-06-16 23:51:00,
2013-06-16 18:02:00,72.0,41.0,-100.00,SSW,194,-999.0,-999.0,33,-99.99,,,-99.99,,2013-06-17 00:02:00,
2013-06-16 18:11:00,72.0,41.0,-100.00,SSW,194,-999.0,-999.0,32,-99.99,,,-99.99,,2013-06-17 00:11:00,
2013-06-16 18:22:00,72.0,41.0,-100.00,SSW,194,-999.0,-999.0,32,-99.99,,,-99.99,,2013-06-17 00:22:00,
2013-06-16 18:32:00,73.0,41.0,-100.00,SSW,194,-999.0,-999.0,32,-99.99,,,-99.99,,2013-06-17 00:32:00,
2013-06-16 18:43:00,72.0,40.0,-100.00,SSW,194,-999.0,-999.0,31,-99.99,,,-99.99,,2013-06-17 00:43:00,
2013-06-16 18:52:00,72.0,40.0,-100.00,SSW,194,-999.0,1.0,31,-99.99,,,-99.99,,2013-06-17 00:52:00,
2013-06-16 19:02:00,71.0,40.0,-100.00,SSW,194,-999.0,1.0,33,-99.99,,,-99.99,,2013-06-17 01:02:00,
2013-06-16 19:11:00,69.0,40.0,-100.00,SSW,194,-999.0,10.0,34,-99.99,,,-99.99,,2013-06-17 01:11:00,
2013-06-16 19:22:00,69.0,40.0,-100.00,SSW,194,-999.0,10.0,34,-99.99,,,-99.99,,2013-06-17 01:22:00,
2013-06-16 19:32:00,68.0,40.0,-100.00,SSW,194,-999.0,8.0,36,-99.99,,,-99.99,,2013-06-17 01:32:00,
2013-06-16 19:43:00,68.0,39.0,-100.00,North,6,0.0,2.0,35,-99.99,,,-99.99,,2013-06-17 01:43:00,
2013-06-16 19:53:00,68.0,39.0,-100.00,North,6,0.0,12.0,35,-99.99,,,-99.99,,2013-06-17 01:53:00,
2013-06-16 20:02:00,65.0,39.0,-100.00,WNW,291,5.0,12.0,39,-99.99,,,-99.99,,2013-06-17 02:02:00,
2013-06-16 20:12:00,65.0,39.0,-100.00,WNW,291,5.0,12.0,38,-99.99,,,-99.99,,2013-06-17 02:12:00,
2013-06-16 20:22:00,65.0,39.0,-100.00,WNW,291,5.0,8.0,38,-99.99,,,-99.99,,2013-06-17 02:22:00,
2013-06-16 20:34:00,62.0,39.0,-100.00,WNW,291,5.0,8.0,43,-99.99,,,-99.99,,2013-06-17 02:34:00,
2013-06-16 20:43:00,61.0,40.0,-100.00,WNW,291,5.0,7.0,45,-99.99,,,-99.99,,2013-06-17 02:43:00,
2013-06-16 20:53:00,61.0,40.0,-100.00,WNW,291,5.0,8.0,45,-99.99,,,-99.99,,2013-06-17 02:53:00,
2013-06-16 21:02:00,60.0,45.0,-100.00,WNW,285,1.0,8.0,58,-99.99,,,-99.99,,2013-06-17 03:02:00,
2013-06-16 21:12:00,61.0,39.0,-100.00,WNW,285,1.0,8.0,45,-99.99,,,-99.99,,2013-06-17 03:12:00,
2013-06-16 21:22:00,61.0,39.0,-100.00,WNW,285,1.0,8.0,45,-99.99,,,-99.99,,2013-06-17 03:22:00,
2013-06-16 21:33:00,60.0,39.0,-100.00,WNW,285,1.0,7.0,47,-99.99,,,-99.99,,2013-06-17 03:33:00,
2013-06-16 21:44:00,60.0,39.0,-100.00,WNW,285,1.0,6.0,45,-99.99,,,-99.99,,2013-06-17 03:44:00,
2013-06-16 21:53:00,60.0,39.0,-100.00,WNW,285,1.0,7.0,45,-99.99,,,-99.99,,2013-06-17 03:53:00,
2013-06-16 22:02:00,61.0,38.0,-100.00,WNW,285,1.0,7.0,43,-99.99,,,-99.99,,2013-06-17 04:02:00,
2013-06-16 22:12:00,60.0,37.0,-100.00,WNW,285,1.0,4.0,43,-99.99,,,-99.99,,2013-06-17 04:12:00,
2013-06-16 22:22:00,60.0,37.0,-100.00,WNW,285,1.0,4.0,43,-99.99,,,-99.99,,2013-06-17 04:22:00,
2013-06-16 22:34:00,60.0,38.0,-100.00,WNW,285,1.0,4.0,44,-99.99,,,-99.99,,2013-06-17 04:34:00,
2013-06-16 22:42:00,60.0,37.0,-100.00,WNW,285,1.0,5.0,43,-99.99,,,-99.99,,2013-06-17 04:42:00,
2013-06-16 22:53:00,60.0,37.0,-100.00,WNW,285,1.0,5.0,43,-99.99,,,-99.99,,2013-06-17 04:53:00,
2013-06-16 23:02:00,59.0,36.0,-100.00,West,268,0.0,5.0,43,-99.99,,,-99.99,,2013-06-17 05:02:00,
2013-06-16 23:12:00,60.0,38.0,-100.00,West,268,0.0,4.0,44,-99.99,,,-99.99,,2013-06-17 05:12:00,
2013-06-16 23:22:00,60.0,38.0,-100.00,West,268,0.0,2.0,44,-99.99,,,-99.99,,2013-06-17 05:22:00,
2013-06-16 23:33:00,60.0,35.0,-100.00,West,268,0.0,2.0,40,-99.99,,,-99.99,,2013-06-17 05:33:00,
2013-06-16 23:44:00,60.0,35.0,-100.00,West,268,0.0,2.0,39,-99.99,,,-99.99,,2013-06-17 05:44:00,
2013-06-16 23:53:00,60.0,35.0,-100.00,West,268,0.0,2.0,39,-99.99,,,-99.99,,2013-06-17 05:53:00,